createdAt,value
2019-05-19T00:00:48.455Z,17.17
2019-05-19T00:03:17.192Z,14.80
2019-05-19T00:05:45.850Z,15.80
2019-05-19T00:08:14.446Z,15.73
2019-05-19T00:10:43.119Z,15.87
2019-05-19T00:13:11.771Z,15.43
2019-05-19T00:15:40.399Z,17.00
2019-05-19T00:18:09.134Z,15.80
2019-05-19T00:20:38.034Z,15.47
2019-05-19T00:23:06.670Z,16.90
2019-05-19T00:25:35.386Z,16.30
2019-05-19T00:28:04.223Z,15.80
2019-05-19T00:30:32.867Z,18.63
2019-05-19T00:33:01.531Z,16.07
2019-05-19T00:35:30.590Z,15.97
2019-05-19T00:37:59.448Z,14.27
2019-05-19T00:40:28.011Z,13.00
2019-05-19T00:42:56.610Z,14.93
2019-05-19T00:45:25.322Z,13.83
2019-05-19T00:47:53.956Z,12.60
2019-05-19T00:50:23.006Z,14.67
2019-05-19T00:52:51.558Z,13.53
2019-05-19T00:55:20.152Z,14.10
2019-05-19T00:57:49.453Z,15.27
2019-05-19T01:00:20.235Z,15.83
2019-05-19T01:02:48.607Z,15.93
2019-05-19T01:05:20.589Z,14.67
2019-05-19T01:07:47.870Z,14.67
2019-05-19T01:10:17.794Z,14.53
2019-05-19T01:12:46.680Z,13.87
2019-05-19T01:15:16.970Z,14.40
2019-05-19T01:17:45.676Z,15.97
2019-05-19T01:20:15.839Z,17.20
2019-05-19T01:22:44.506Z,17.37
2019-05-19T01:25:15.299Z,16.43
2019-05-19T01:27:43.927Z,17.37
2019-05-19T01:30:14.936Z,16.20
2019-05-19T01:32:43.580Z,17.70
2019-05-19T01:35:12.518Z,18.57
2019-05-19T01:37:41.525Z,18.43
2019-05-19T01:40:10.723Z,18.03
2019-05-19T01:42:39.699Z,19.07
2019-05-19T01:45:09.308Z,19.37
2019-05-19T01:47:38.018Z,20.30
2019-05-19T01:50:17.585Z,23.33
2019-05-19T01:52:38.247Z,23.33
2019-05-19T01:55:08.248Z,19.33
2019-05-19T01:57:36.843Z,22.53
2019-05-19T02:00:07.809Z,21.40
2019-05-19T02:02:36.864Z,25.00
2019-05-19T02:05:08.804Z,22.43
2019-05-19T02:07:37.380Z,24.33
2019-05-19T02:10:10.145Z,23.53
2019-05-19T02:12:39.097Z,21.83
2019-05-19T02:15:08.289Z,24.53
2019-05-19T02:17:36.947Z,24.50
2019-05-19T02:20:09.333Z,25.13
2019-05-19T02:22:38.047Z,23.17
2019-05-19T02:25:07.079Z,28.47
2019-05-19T02:27:35.717Z,27.63
2019-05-19T02:30:08.896Z,27.20
2019-05-19T02:32:37.588Z,28.53
2019-05-19T02:35:07.015Z,26.13
2019-05-19T02:37:35.648Z,27.67
2019-05-19T02:40:06.164Z,28.43
2019-05-19T02:42:37.819Z,24.33
2019-05-19T02:45:07.563Z,27.73
2019-05-19T02:47:37.875Z,25.93
2019-05-19T02:50:07.900Z,23.13
2019-05-19T02:52:38.904Z,22.27
2019-05-19T02:55:08.246Z,19.60
2019-05-19T02:57:38.280Z,24.40
2019-05-19T03:00:10.753Z,20.53
2019-05-19T03:02:39.482Z,22.70
2019-05-19T03:05:08.662Z,22.67
2019-05-19T03:07:37.252Z,22.60
2019-05-19T03:10:06.371Z,22.13
2019-05-19T03:12:35.119Z,21.93
2019-05-19T03:15:04.856Z,22.37
2019-05-19T03:17:33.428Z,23.20
2019-05-19T03:20:02.490Z,25.17
2019-05-19T03:22:31.027Z,22.40
2019-05-19T03:24:59.645Z,20.53
2019-05-19T03:27:28.515Z,24.47
2019-05-19T03:29:58.744Z,20.97
2019-05-19T03:32:31.684Z,23.13
2019-05-19T03:35:00.325Z,23.70
2019-05-19T03:37:29.198Z,24.43
2019-05-19T03:39:58.084Z,30.87
2019-05-19T03:42:26.913Z,27.80
2019-05-19T03:44:55.508Z,27.73
2019-05-19T03:47:24.106Z,26.37
2019-05-19T03:49:52.731Z,26.07
2019-05-19T03:52:21.327Z,29.03
2019-05-19T03:54:49.894Z,31.23
2019-05-19T03:57:18.486Z,26.90
2019-05-19T03:59:47.067Z,30.63
2019-05-19T04:02:15.665Z,29.90
2019-05-19T04:04:44.300Z,31.33
2019-05-19T04:07:12.964Z,28.50
2019-05-19T04:09:41.531Z,32.30
2019-05-19T04:12:10.739Z,30.77
2019-05-19T04:14:39.377Z,27.10
2019-05-19T04:17:08.368Z,28.87
2019-05-19T04:19:37.356Z,30.83
2019-05-19T04:22:05.920Z,30.17
2019-05-19T04:24:37.599Z,28.33
2019-05-19T04:27:06.231Z,26.17
2019-05-19T04:29:34.824Z,28.17
2019-05-19T04:32:03.623Z,29.43
2019-05-19T04:34:32.642Z,27.77
2019-05-19T04:37:01.268Z,28.87
2019-05-19T04:39:30.325Z,27.23
2019-05-19T04:41:59.265Z,27.57
2019-05-19T04:44:28.226Z,25.43
2019-05-19T04:46:57.090Z,27.67
2019-05-19T04:49:25.763Z,28.07
2019-05-19T04:52:05.966Z,25.57
2019-05-19T04:54:24.629Z,23.63
2019-05-19T04:56:53.308Z,26.93
2019-05-19T04:59:22.260Z,24.93
2019-05-19T05:01:50.895Z,24.50
2019-05-19T05:04:19.940Z,24.20
2019-05-19T05:06:48.504Z,22.17
2019-05-19T05:09:17.168Z,21.27
2019-05-19T05:11:45.730Z,20.63
2019-05-19T05:14:14.663Z,19.87
2019-05-19T05:16:43.679Z,17.60
2019-05-19T05:19:12.281Z,22.83
2019-05-19T05:21:40.843Z,17.40
2019-05-19T05:24:09.822Z,17.00
2019-05-19T05:26:38.430Z,15.23
2019-05-19T05:29:07.000Z,15.70
2019-05-19T05:31:35.661Z,15.77
2019-05-19T05:34:04.583Z,16.13
2019-05-19T05:36:33.154Z,15.53
2019-05-19T05:39:01.790Z,15.40
2019-05-19T05:41:30.458Z,13.70
2019-05-19T05:43:59.023Z,16.43
2019-05-19T05:46:27.895Z,13.40
2019-05-19T05:48:56.888Z,14.40
2019-05-19T05:51:25.555Z,13.90
2019-05-19T05:53:54.504Z,12.57
2019-05-19T05:56:23.203Z,13.33
2019-05-19T05:58:51.784Z,15.50
2019-05-19T06:01:20.344Z,11.00
2019-05-19T06:03:49.315Z,13.23
2019-05-19T06:06:18.323Z,10.30
2019-05-19T06:08:46.983Z,10.20
2019-05-19T06:11:15.871Z,10.63
2019-05-19T06:13:44.893Z,10.20
2019-05-19T06:16:13.498Z,9.67
2019-05-19T06:18:42.439Z,8.47
2019-05-19T06:21:11.326Z,8.70
2019-05-19T06:23:40.219Z,9.47
2019-05-19T06:26:09.112Z,10.77
2019-05-19T06:28:37.851Z,11.40
2019-05-19T06:31:06.615Z,11.07
2019-05-19T06:33:35.679Z,13.27
2019-05-19T06:36:04.358Z,12.10
2019-05-19T06:38:33.358Z,12.07
2019-05-19T06:41:02.559Z,13.00
2019-05-19T06:43:31.134Z,11.00
2019-05-19T06:46:00.027Z,11.53
2019-05-19T06:48:28.599Z,12.87
2019-05-19T06:50:57.498Z,9.63
2019-05-19T06:53:26.159Z,9.33
2019-05-19T06:55:54.721Z,8.63
2019-05-19T06:58:23.350Z,8.23
2019-05-19T07:00:52.031Z,8.83
2019-05-19T07:03:20.688Z,9.57
2019-05-19T07:05:49.395Z,7.67
2019-05-19T07:08:17.974Z,8.03
2019-05-19T07:10:46.544Z,7.73
2019-05-19T07:13:15.524Z,6.97
2019-05-19T07:15:44.107Z,7.33
2019-05-19T07:18:12.734Z,6.20
2019-05-19T07:20:41.430Z,7.60
2019-05-19T07:23:10.248Z,5.93
2019-05-19T07:25:38.822Z,6.43
2019-05-19T07:28:07.667Z,7.30
2019-05-19T07:30:36.671Z,6.43
2019-05-19T07:33:05.295Z,6.27
2019-05-19T07:35:33.943Z,7.13
2019-05-19T07:38:02.614Z,6.53
2019-05-19T07:40:31.330Z,8.23
2019-05-19T07:42:59.913Z,6.90
2019-05-19T07:45:28.882Z,6.93
2019-05-19T07:47:57.516Z,6.70
2019-05-19T07:50:26.455Z,6.00
2019-05-19T07:52:55.282Z,5.90
2019-05-19T07:55:23.839Z,7.53
2019-05-19T07:57:52.433Z,7.40
2019-05-19T08:00:21.399Z,7.40
2019-05-19T08:02:50.391Z,5.50
2019-05-19T08:05:19.019Z,5.33
2019-05-19T08:07:47.881Z,4.37
2019-05-19T08:10:16.507Z,4.60
2019-05-19T08:12:45.095Z,5.05
2019-05-19T08:15:13.999Z,8.53
2019-05-19T08:17:42.606Z,5.35
2019-05-19T08:20:12.092Z,6.30
2019-05-19T08:22:40.651Z,4.83
2019-05-19T08:25:09.679Z,6.83
2019-05-19T08:27:38.307Z,4.10
2019-05-19T08:30:08.871Z,4.15
2019-05-19T08:32:37.459Z,3.33
2019-05-19T08:35:06.886Z,4.92
2019-05-19T08:37:35.464Z,3.70
2019-05-19T08:40:04.899Z,3.20
2019-05-19T08:42:33.459Z,3.50
2019-05-19T08:45:02.092Z,3.87
2019-05-19T08:47:30.759Z,3.83
2019-05-19T08:49:59.315Z,3.50
2019-05-19T08:52:28.195Z,4.15
2019-05-19T08:54:56.855Z,3.83
2019-05-19T08:57:25.945Z,3.72
2019-05-19T08:59:54.766Z,4.37
2019-05-19T09:02:23.390Z,4.00
2019-05-19T09:04:52.367Z,6.03
2019-05-19T09:07:21.231Z,3.90
2019-05-19T09:09:49.830Z,3.92
2019-05-19T09:12:18.492Z,4.72
2019-05-19T09:14:47.039Z,4.67
2019-05-19T09:17:15.646Z,5.28
2019-05-19T09:19:44.207Z,3.47
2019-05-19T09:22:13.235Z,4.75
2019-05-19T09:24:41.958Z,2.95
2019-05-19T09:27:10.670Z,5.92
2019-05-19T09:29:39.212Z,3.40
2019-05-19T09:32:07.878Z,4.95
2019-05-19T09:34:36.868Z,3.25
2019-05-19T09:37:05.523Z,4.15
2019-05-19T09:39:34.109Z,3.40
2019-05-19T09:42:03.029Z,2.58
2019-05-19T09:44:31.615Z,3.17
2019-05-19T09:47:00.604Z,2.75
2019-05-19T09:49:32.566Z,3.35
2019-05-19T09:52:02.628Z,4.90
2019-05-19T09:54:44.062Z,3.30
2019-05-19T09:57:03.520Z,4.05
2019-05-19T09:59:33.062Z,4.37
2019-05-19T10:02:01.858Z,3.92
2019-05-19T10:04:30.592Z,3.62
2019-05-19T10:07:00.314Z,3.50
2019-05-19T10:09:32.999Z,3.50
2019-05-19T10:12:06.795Z,3.52
2019-05-19T10:14:35.711Z,3.83
2019-05-19T10:17:04.403Z,3.30
2019-05-19T10:19:33.481Z,3.33
2019-05-19T10:22:02.203Z,3.90
2019-05-19T10:24:30.831Z,4.67
2019-05-19T10:26:59.765Z,3.55
2019-05-19T10:29:28.562Z,3.00
2019-05-19T10:31:57.220Z,3.30
2019-05-19T10:34:25.981Z,3.22
2019-05-19T10:36:55.197Z,2.90
2019-05-19T10:39:25.170Z,2.40
2019-05-19T10:41:53.827Z,3.15
2019-05-19T10:44:23.035Z,2.70
2019-05-19T10:46:51.752Z,4.47
2019-05-19T10:49:20.518Z,3.17
2019-05-19T10:51:49.483Z,2.60
2019-05-19T10:54:18.281Z,2.87
2019-05-19T10:56:47.131Z,4.00
2019-05-19T10:59:15.695Z,2.85
2019-05-19T11:01:44.706Z,2.40
2019-05-19T11:04:13.446Z,2.83
2019-05-19T11:06:42.402Z,6.00
2019-05-19T11:09:11.085Z,5.53
2019-05-19T11:11:39.751Z,4.25
2019-05-19T11:14:08.752Z,3.47
2019-05-19T11:16:37.374Z,3.10
2019-05-19T11:19:06.034Z,3.85
2019-05-19T11:21:34.735Z,3.60
2019-05-19T11:24:03.464Z,4.75
2019-05-19T11:26:32.029Z,5.90
2019-05-19T11:29:00.758Z,5.60
2019-05-19T11:31:29.651Z,4.70
2019-05-19T11:33:58.458Z,5.78
2019-05-19T11:36:27.431Z,3.85
2019-05-19T11:38:56.092Z,3.47
2019-05-19T11:41:25.027Z,4.00
2019-05-19T11:43:53.656Z,3.10
2019-05-19T11:46:22.311Z,3.10
2019-05-19T11:48:51.015Z,4.53
2019-05-19T11:51:20.055Z,3.35
2019-05-19T11:53:48.812Z,4.25
2019-05-19T11:56:17.385Z,3.20
2019-05-19T11:58:46.654Z,3.95
2019-05-19T12:01:15.271Z,3.85
2019-05-19T12:03:43.887Z,3.47
2019-05-19T12:06:12.448Z,3.00
2019-05-19T12:08:41.119Z,2.95
2019-05-19T12:11:10.626Z,4.05
2019-05-19T12:13:40.818Z,5.17
2019-05-19T12:16:10.501Z,3.77
2019-05-19T12:18:39.868Z,3.58
2019-05-19T12:21:09.537Z,3.77
2019-05-19T12:23:39.961Z,3.27
2019-05-19T12:26:22.256Z,3.52
2019-05-19T12:28:41.155Z,8.78
2019-05-19T12:31:09.693Z,6.20
2019-05-19T12:33:50.995Z,3.52
2019-05-19T12:36:08.560Z,5.42
2019-05-19T12:38:37.151Z,12.30
2019-05-19T12:41:05.755Z,4.17
2019-05-19T12:43:34.302Z,5.47
2019-05-19T12:46:03.369Z,4.78
2019-05-19T12:48:33.482Z,3.80
2019-05-19T12:51:03.062Z,5.03
2019-05-19T12:53:31.687Z,3.47
2019-05-19T12:56:00.386Z,4.20
2019-05-19T12:58:29.318Z,3.85
2019-05-19T13:00:58.039Z,3.70
2019-05-19T13:03:26.979Z,3.72
2019-05-19T13:05:56.463Z,3.75
2019-05-19T13:08:25.075Z,3.95
2019-05-19T13:10:53.711Z,4.35
2019-05-19T13:13:22.372Z,4.03
2019-05-19T13:15:51.423Z,3.90
2019-05-19T13:18:20.581Z,3.98
2019-05-19T13:20:49.275Z,3.72
2019-05-19T13:23:19.354Z,3.87
2019-05-19T13:25:47.967Z,3.30
2019-05-19T13:28:16.557Z,3.72
2019-05-19T13:30:45.172Z,4.72
2019-05-19T13:33:14.076Z,3.58
2019-05-19T13:35:42.710Z,4.92
2019-05-19T13:38:11.435Z,3.40
2019-05-19T13:40:40.070Z,3.85
2019-05-19T13:43:08.915Z,5.03
2019-05-19T13:45:37.920Z,3.43
2019-05-19T13:48:06.900Z,5.17
2019-05-19T13:50:35.566Z,7.37
2019-05-19T13:53:04.291Z,3.60
2019-05-19T13:55:32.882Z,3.73
2019-05-19T13:58:03.552Z,3.57
2019-05-19T14:00:32.656Z,3.47
2019-05-19T14:03:01.283Z,3.37
2019-05-19T14:05:29.943Z,3.30
2019-05-19T14:07:59.068Z,4.80
2019-05-19T14:10:27.630Z,3.70
2019-05-19T14:12:56.227Z,6.50
2019-05-19T14:15:25.204Z,3.20
2019-05-19T14:17:54.200Z,4.03
2019-05-19T14:20:22.800Z,3.57
2019-05-19T14:22:51.486Z,3.50
2019-05-19T14:25:20.818Z,6.33
2019-05-19T14:27:49.751Z,4.80
2019-05-19T14:30:18.658Z,3.87
2019-05-19T14:32:47.319Z,3.50
2019-05-19T14:35:15.943Z,4.40
2019-05-19T14:37:44.619Z,4.43
2019-05-19T14:40:13.906Z,3.67
2019-05-19T14:42:49.888Z,4.40
2019-05-19T14:45:19.674Z,3.90
2019-05-19T14:47:48.970Z,3.30
2019-05-19T14:50:17.863Z,4.60
2019-05-19T14:52:46.769Z,3.93
2019-05-19T14:55:15.499Z,3.60
2019-05-19T14:57:45.604Z,3.50
2019-05-19T15:00:16.399Z,3.97
2019-05-19T15:02:44.959Z,3.70
2019-05-19T15:05:14.267Z,3.57
2019-05-19T15:07:42.899Z,3.37
2019-05-19T15:10:13.242Z,3.67
2019-05-19T15:12:41.875Z,3.73
2019-05-19T15:15:12.218Z,3.80
2019-05-19T15:17:40.903Z,4.30
2019-05-19T15:20:11.599Z,4.10
2019-05-19T15:22:40.336Z,4.00
2019-05-19T15:25:09.235Z,3.62
2019-05-19T15:27:38.169Z,3.60
2019-05-19T15:30:13.007Z,3.70
2019-05-19T15:32:37.174Z,4.30
2019-05-19T15:35:26.590Z,3.67
2019-05-19T15:37:55.545Z,4.30
2019-05-19T15:40:24.100Z,4.90
2019-05-19T15:42:52.728Z,6.43
2019-05-19T15:45:21.386Z,7.97
2019-05-19T15:47:50.278Z,5.13
2019-05-19T15:50:19.548Z,4.30
2019-05-19T15:52:48.147Z,4.93
2019-05-19T15:55:17.365Z,3.67
2019-05-19T15:57:46.020Z,4.37
2019-05-19T16:00:15.389Z,4.77
2019-05-19T16:02:44.212Z,5.13
2019-05-19T16:05:12.990Z,5.03
2019-05-19T16:07:42.284Z,5.90
2019-05-19T16:10:11.836Z,7.03
2019-05-19T16:12:40.567Z,6.10
2019-05-19T16:15:10.065Z,5.70
2019-05-19T16:17:39.013Z,4.80
2019-05-19T16:20:08.285Z,5.50
2019-05-19T16:22:37.011Z,4.77
2019-05-19T16:25:10.187Z,5.80
2019-05-19T16:27:39.283Z,5.53
2019-05-19T16:30:08.367Z,6.60
2019-05-19T16:32:37.108Z,4.20
2019-05-19T16:35:06.932Z,6.10
2019-05-19T16:37:35.804Z,4.97
2019-05-19T16:40:05.280Z,5.03
2019-05-19T16:42:33.906Z,5.10
2019-05-19T16:45:02.576Z,6.67
2019-05-19T16:47:31.447Z,4.13
2019-05-19T16:50:00.039Z,6.23
2019-05-19T16:52:28.639Z,5.60
2019-05-19T16:55:11.108Z,4.40
2019-05-19T16:57:40.100Z,4.90
2019-05-19T17:00:09.267Z,5.20
2019-05-19T17:02:38.295Z,4.83
2019-05-19T17:05:07.791Z,4.00
2019-05-19T17:07:36.410Z,5.80
2019-05-19T17:10:08.172Z,5.10
2019-05-19T17:12:37.131Z,7.37
2019-05-19T17:15:06.818Z,4.27
2019-05-19T17:17:35.827Z,4.27
2019-05-19T17:20:06.865Z,4.47
2019-05-19T17:22:35.855Z,5.47
2019-05-19T17:25:06.493Z,6.00
2019-05-19T17:27:35.334Z,6.37
2019-05-19T17:30:06.730Z,5.07
2019-05-19T17:32:35.427Z,4.70
2019-05-19T17:35:06.155Z,4.67
2019-05-19T17:37:34.797Z,6.13
2019-05-19T17:40:03.906Z,4.40
2019-05-19T17:42:32.564Z,7.90
2019-05-19T17:45:01.124Z,5.73
2019-05-19T17:47:30.086Z,5.67
2019-05-19T17:49:58.639Z,7.30
2019-05-19T17:52:27.639Z,10.33
2019-05-19T17:54:56.262Z,4.10
2019-05-19T17:57:25.027Z,5.43
2019-05-19T17:59:54.330Z,4.40
2019-05-19T18:02:22.950Z,4.43
2019-05-19T18:04:51.535Z,4.20
2019-05-19T18:07:20.487Z,4.30
2019-05-19T18:09:49.371Z,4.47
2019-05-19T18:12:18.268Z,4.30
2019-05-19T18:14:47.155Z,4.00
2019-05-19T18:17:15.822Z,4.17
2019-05-19T18:19:44.455Z,4.90
2019-05-19T18:22:13.119Z,4.33
2019-05-19T18:24:41.999Z,3.90
2019-05-19T18:27:12.249Z,5.07
2019-05-19T18:29:41.212Z,4.83
2019-05-19T18:32:10.208Z,4.87
2019-05-19T18:34:38.791Z,4.33
2019-05-19T18:37:07.500Z,4.33
2019-05-19T18:39:36.062Z,6.27
2019-05-19T18:42:04.731Z,4.40
2019-05-19T18:44:33.739Z,4.67
2019-05-19T18:47:02.298Z,4.17
2019-05-19T18:49:30.866Z,5.00
2019-05-19T18:51:59.539Z,4.70
2019-05-19T18:54:28.167Z,5.30
2019-05-19T18:56:56.751Z,4.57
2019-05-19T18:59:25.455Z,7.20
2019-05-19T19:01:54.162Z,6.97
2019-05-19T19:04:23.215Z,10.47
2019-05-19T19:06:51.884Z,8.83
2019-05-19T19:09:20.790Z,10.07
2019-05-19T19:11:49.783Z,7.73
2019-05-19T19:14:18.675Z,7.37
2019-05-19T19:16:47.303Z,7.70
2019-05-19T19:19:15.863Z,6.43
2019-05-19T19:21:44.832Z,9.80
2019-05-19T19:24:13.486Z,9.50
2019-05-19T19:26:42.051Z,6.73
2019-05-19T19:29:10.715Z,6.37
2019-05-19T19:31:48.012Z,5.73
2019-05-19T19:34:09.527Z,5.33
2019-05-19T19:36:38.220Z,5.10
2019-05-19T19:39:06.930Z,4.93
2019-05-19T19:41:36.458Z,5.10
2019-05-19T19:44:05.454Z,5.13
2019-05-19T19:46:34.456Z,6.00
2019-05-19T19:49:03.141Z,6.30
2019-05-19T19:51:32.023Z,4.87
2019-05-19T19:54:00.579Z,6.67
2019-05-19T19:56:29.181Z,4.23
2019-05-19T19:58:57.736Z,4.73
2019-05-19T20:01:26.665Z,4.23
2019-05-19T20:03:55.333Z,6.63
2019-05-19T20:06:24.343Z,6.70
2019-05-19T20:08:54.002Z,4.30
2019-05-19T20:11:22.717Z,4.50
2019-05-19T20:13:51.644Z,6.13
2019-05-19T20:16:20.271Z,4.53
2019-05-19T20:18:48.935Z,5.50
2019-05-19T20:21:17.789Z,7.90
2019-05-19T20:23:46.646Z,5.77
2019-05-19T20:26:15.319Z,5.20
2019-05-19T20:28:43.951Z,4.83
2019-05-19T20:31:12.633Z,4.97
2019-05-19T20:33:41.339Z,4.67
2019-05-19T20:36:09.903Z,5.57
2019-05-19T20:38:38.564Z,5.03
2019-05-19T20:41:07.132Z,5.87
2019-05-19T20:43:35.783Z,5.60
2019-05-19T20:46:04.348Z,6.90
2019-05-19T20:48:33.048Z,4.93
2019-05-19T20:51:01.752Z,5.07
2019-05-19T20:53:30.664Z,8.00
2019-05-19T20:55:59.689Z,5.33
2019-05-19T20:58:28.680Z,6.03
2019-05-19T21:00:57.669Z,5.67
2019-05-19T21:03:26.295Z,5.80
2019-05-19T21:05:55.242Z,9.37
2019-05-19T21:08:25.060Z,4.80
2019-05-19T21:10:53.624Z,5.37
2019-05-19T21:13:22.179Z,5.20
2019-05-19T21:15:51.222Z,4.87
2019-05-19T21:18:19.778Z,5.87
2019-05-19T21:20:49.108Z,4.93
2019-05-19T21:23:17.752Z,5.73
2019-05-19T21:25:46.620Z,4.50
2019-05-19T21:28:15.247Z,5.50
2019-05-19T21:30:43.873Z,6.40
2019-05-19T21:33:12.496Z,5.67
2019-05-19T21:35:41.415Z,4.77
2019-05-19T21:38:10.000Z,5.80
2019-05-19T21:40:38.588Z,4.77
2019-05-19T21:43:07.177Z,4.57
2019-05-19T21:45:35.802Z,7.50
2019-05-19T21:48:04.466Z,5.17
2019-05-19T21:50:33.031Z,4.40
2019-05-19T21:53:01.616Z,5.30
2019-05-19T21:55:30.171Z,4.27
2019-05-19T21:57:59.173Z,3.87
2019-05-19T22:00:29.534Z,5.20
2019-05-19T22:02:58.163Z,7.13
2019-05-19T22:05:26.891Z,3.87
2019-05-19T22:08:00.672Z,3.80
2019-05-19T22:10:29.409Z,4.70
2019-05-19T22:12:58.034Z,4.10
2019-05-19T22:15:27.000Z,4.03
2019-05-19T22:17:55.900Z,4.17
2019-05-19T22:20:24.609Z,3.97
2019-05-19T22:22:53.155Z,4.00
2019-05-19T22:25:21.841Z,3.70
2019-05-19T22:27:50.462Z,4.20
2019-05-19T22:30:19.560Z,4.60
2019-05-19T22:32:48.214Z,3.70
2019-05-19T22:35:17.023Z,4.07
2019-05-19T22:37:46.026Z,4.30
2019-05-19T22:40:15.014Z,3.60
2019-05-19T22:42:43.685Z,3.80
2019-05-19T22:45:13.854Z,3.87
2019-05-19T22:47:42.530Z,4.13
2019-05-19T22:50:11.522Z,4.00
2019-05-19T22:52:40.084Z,5.10
2019-05-19T22:55:09.606Z,3.97
2019-05-19T22:57:38.165Z,4.63
2019-05-19T23:00:09.833Z,4.13
2019-05-19T23:02:38.457Z,4.03
2019-05-19T23:05:07.782Z,3.93
2019-05-19T23:07:36.500Z,3.83
2019-05-19T23:10:07.098Z,4.20
2019-05-19T23:12:36.121Z,5.07
2019-05-19T23:15:09.616Z,3.60
2019-05-19T23:17:39.059Z,4.43
2019-05-19T23:20:08.399Z,4.90
2019-05-19T23:22:37.041Z,4.10
2019-05-19T23:25:07.430Z,3.83
2019-05-19T23:27:36.425Z,4.30
2019-05-19T23:30:08.407Z,4.17
2019-05-19T23:32:37.071Z,4.10
2019-05-19T23:35:08.038Z,4.70
2019-05-19T23:37:36.622Z,3.83
2019-05-19T23:40:07.263Z,6.43
2019-05-19T23:42:36.086Z,4.00
2019-05-19T23:45:08.487Z,4.10
2019-05-19T23:47:37.346Z,4.17
2019-05-19T23:50:06.539Z,4.37
2019-05-19T23:52:35.430Z,3.80
2019-05-19T23:55:05.462Z,4.13
2019-05-19T23:57:34.090Z,3.80
